createdAt,value
2023-05-05T00:03:45.019Z,102083.25
2023-05-05T00:08:46.905Z,102078.28
2023-05-05T00:13:48.879Z,102079.31
2023-05-05T00:18:50.364Z,102071.47
2023-05-05T00:23:52.069Z,102076.75
2023-05-05T00:28:53.510Z,102073.38
2023-05-05T00:33:55.056Z,102071.75
2023-05-05T00:38:56.504Z,102058.13
2023-05-05T00:43:57.928Z,102054.75
2023-05-05T00:49:00.784Z,102051.41
2023-05-05T00:54:02.320Z,102058.50
2023-05-05T00:59:03.798Z,102047.41
2023-05-05T01:04:05.274Z,102044.16
2023-05-05T01:09:24.713Z,102057.97
2023-05-05T01:14:39.856Z,102056.41
2023-05-05T01:20:08.667Z,102050.53
2023-05-05T01:25:44.329Z,102032.47
2023-05-05T01:31:10.684Z,102038.63
2023-05-05T01:36:22.761Z,102033.69
2023-05-05T01:41:47.068Z,102028.78
2023-05-05T01:46:51.965Z,102021.19
2023-05-05T01:51:55.682Z,102025.75
2023-05-05T01:56:58.623Z,102016.44
2023-05-05T02:02:02.215Z,102008.84
2023-05-05T02:07:05.108Z,102011.63
2023-05-05T02:12:08.114Z,102006.56
2023-05-05T02:17:11.376Z,102009.22
2023-05-05T02:22:12.860Z,102003.28
2023-05-05T02:27:17.649Z,101994.88
2023-05-05T02:32:34.698Z,101988.97
2023-05-05T02:37:38.326Z,101992.47
2023-05-05T02:42:42.984Z,101995.03
2023-05-05T02:47:46.473Z,101990.81
2023-05-05T02:52:48.537Z,101985.81
2023-05-05T02:58:06.142Z,101982.38
2023-05-05T03:03:22.308Z,101972.16
2023-05-05T03:08:52.244Z,101971.38
2023-05-05T03:14:15.047Z,101963.72
2023-05-05T03:19:20.060Z,101964.63
2023-05-05T03:24:27.085Z,101959.41
2023-05-05T03:29:36.112Z,101949.13
2023-05-05T03:34:39.315Z,101954.22
2023-05-05T03:39:40.941Z,101957.53
2023-05-05T03:44:44.326Z,101958.34
2023-05-05T03:49:46.029Z,101940.28
2023-05-05T03:54:47.582Z,101943.72
2023-05-05T03:59:49.216Z,101938.69
2023-05-05T04:04:50.963Z,101945.63
2023-05-05T04:09:52.614Z,101951.69
2023-05-05T04:14:54.850Z,101937.13
2023-05-05T04:19:56.493Z,101935.34
2023-05-05T04:24:58.001Z,101925.88
2023-05-05T04:29:59.748Z,101935.34
2023-05-05T04:35:01.544Z,101936.94
2023-05-05T04:40:03.401Z,101946.91
2023-05-05T04:45:08.394Z,101956.22
2023-05-05T04:50:10.752Z,101964.19
2023-05-05T04:55:13.604Z,101967.56
2023-05-05T05:00:15.325Z,101944.34
2023-05-05T05:05:16.879Z,101952.59
2023-05-05T05:10:18.975Z,101945.72
2023-05-05T05:15:21.849Z,101950.50
2023-05-05T05:20:23.402Z,101957.19
2023-05-05T05:25:25.073Z,101950.66
2023-05-05T05:30:27.249Z,101955.94
2023-05-05T05:35:29.166Z,101950.19
2023-05-05T05:40:30.766Z,101957.25
2023-05-05T05:45:32.379Z,101951.56
2023-05-05T05:50:34.086Z,101947.75
2023-05-05T05:55:35.598Z,101944.91
2023-05-05T06:00:37.221Z,101941.84
2023-05-05T06:05:42.595Z,101926.88
2023-05-05T06:10:44.960Z,101923.78
2023-05-05T06:15:50.881Z,101899.38
2023-05-05T06:20:52.903Z,101905.91
2023-05-05T06:25:57.658Z,101911.03
2023-05-05T06:30:59.118Z,101916.50
2023-05-05T06:36:00.655Z,101910.06
2023-05-05T06:41:02.172Z,101925.16
2023-05-05T06:46:03.708Z,101943.25
2023-05-05T06:51:05.205Z,101957.78
2023-05-05T06:56:07.842Z,101947.91
2023-05-05T07:01:09.646Z,101954.97
2023-05-05T07:06:11.127Z,101963.19
2023-05-05T07:11:12.656Z,101975.72
2023-05-05T07:16:14.141Z,101977.41
2023-05-05T07:21:15.612Z,101979.47
2023-05-05T07:26:17.105Z,101973.56
2023-05-05T07:31:18.721Z,101986.66
2023-05-05T07:36:20.319Z,101996.31
2023-05-05T07:41:21.744Z,101992.09
2023-05-05T07:46:23.226Z,102006.25
2023-05-05T07:51:24.813Z,102011.63
2023-05-05T07:56:26.232Z,102012.22
2023-05-05T08:01:27.966Z,102021.25
2023-05-05T08:06:30.876Z,102007.25
2023-05-05T08:11:32.319Z,101995.19
2023-05-05T08:16:33.883Z,101984.50
2023-05-05T08:21:35.451Z,101969.66
2023-05-05T08:26:36.899Z,101970.53
2023-05-05T08:31:38.454Z,101974.09
2023-05-05T08:36:39.907Z,101967.75
2023-05-05T08:41:41.478Z,101970.19
2023-05-05T08:46:43.227Z,101965.56
2023-05-05T08:51:46.496Z,101951.31
2023-05-05T08:56:50.014Z,101940.00
2023-05-05T09:01:53.030Z,101950.78
2023-05-05T09:06:58.148Z,101955.78
2023-05-05T09:12:00.186Z,101954.22
2023-05-05T09:17:03.322Z,101951.66
2023-05-05T09:22:04.837Z,101952.88
2023-05-05T09:27:21.666Z,101945.44
2023-05-05T09:32:23.753Z,101938.50
2023-05-05T09:37:31.411Z,101938.84
2023-05-05T09:42:32.847Z,101933.88
2023-05-05T09:47:37.549Z,101919.59
2023-05-05T09:52:39.204Z,101922.94
2023-05-05T09:57:40.650Z,101916.59
2023-05-05T10:02:42.294Z,101919.69
2023-05-05T10:07:46.175Z,101933.50
2023-05-05T10:12:49.223Z,101935.56
2023-05-05T10:18:06.160Z,101940.41
2023-05-05T10:23:14.183Z,101940.75
2023-05-05T10:28:23.021Z,101952.47
2023-05-05T10:33:33.840Z,101945.34
2023-05-05T10:38:35.918Z,101942.97
2023-05-05T10:43:37.633Z,101930.72
2023-05-05T10:48:54.550Z,101919.91
2023-05-05T10:54:05.925Z,101917.66
2023-05-05T10:59:38.818Z,101901.63
2023-05-05T11:04:40.801Z,101904.13
2023-05-05T11:09:55.178Z,101896.53
2023-05-05T11:15:27.539Z,101903.53
2023-05-05T11:20:35.218Z,101893.22
2023-05-05T11:25:37.201Z,101891.97
2023-05-05T11:31:18.664Z,101872.66
2023-05-05T11:36:37.007Z,101862.44
2023-05-05T11:42:10.229Z,101863.31
2023-05-05T11:47:12.244Z,101850.06
2023-05-05T11:52:15.119Z,101857.81
2023-05-05T11:57:17.999Z,101868.34
2023-05-05T12:02:20.407Z,101851.53
2023-05-05T12:07:24.596Z,101848.03
2023-05-05T12:12:39.425Z,101840.28
2023-05-05T12:17:42.958Z,101844.75
2023-05-05T12:22:44.588Z,101845.41
2023-05-05T12:27:52.571Z,101833.59
2023-05-05T12:33:01.550Z,101835.84
2023-05-05T12:38:03.471Z,101838.06
2023-05-05T12:43:04.884Z,101839.44
2023-05-05T12:48:22.476Z,101844.97
2023-05-05T12:53:25.225Z,101840.34
2023-05-05T12:58:26.695Z,101836.81
2023-05-05T13:03:28.232Z,101848.09
2023-05-05T13:08:43.002Z,101837.47
2023-05-05T13:13:44.436Z,101835.31
2023-05-05T13:18:49.810Z,101834.34
2023-05-05T13:23:51.360Z,101823.66
2023-05-05T13:28:52.868Z,101814.50
2023-05-05T13:33:54.478Z,101813.50
2023-05-05T13:38:55.942Z,101814.03
2023-05-05T13:43:57.354Z,101818.03
2023-05-05T13:48:58.781Z,101801.09
2023-05-05T13:54:02.793Z,101804.81
2023-05-05T13:59:04.560Z,101802.13
2023-05-05T14:04:06.312Z,101805.78
2023-05-05T14:09:07.893Z,101799.31
2023-05-05T14:14:09.336Z,101794.19
2023-05-05T14:19:10.752Z,101793.59
2023-05-05T14:24:12.184Z,101791.16
2023-05-05T14:29:13.620Z,101776.56
2023-05-05T14:34:15.016Z,101771.13
2023-05-05T14:39:16.477Z,101762.50
2023-05-05T14:44:17.973Z,101761.41
2023-05-05T14:49:19.504Z,101750.78
2023-05-05T14:54:27.853Z,101744.28
2023-05-05T14:59:30.325Z,101747.34
2023-05-05T15:04:31.846Z,101735.81
2023-05-05T15:09:33.254Z,101733.66
2023-05-05T15:14:34.738Z,101725.38
2023-05-05T15:19:36.414Z,101728.63
2023-05-05T15:24:37.975Z,101722.69
2023-05-05T15:29:39.379Z,101729.47
2023-05-05T15:34:40.828Z,101730.34
2023-05-05T15:39:42.314Z,101731.88
2023-05-05T15:44:43.745Z,101724.59
2023-05-05T15:49:45.177Z,101721.53
2023-05-05T15:54:46.704Z,101716.16
2023-05-05T15:59:51.350Z,101718.59
2023-05-05T16:04:52.831Z,101716.06
2023-05-05T16:09:54.271Z,101710.66
2023-05-05T16:14:55.950Z,101701.50
2023-05-05T16:19:57.368Z,101718.72
2023-05-05T16:24:58.791Z,101717.66
2023-05-05T16:30:00.228Z,101722.13
2023-05-05T16:35:01.679Z,101729.41
2023-05-05T16:40:03.268Z,101734.63
2023-05-05T16:45:05.880Z,101753.00
2023-05-05T16:50:07.680Z,101750.50
2023-05-05T16:55:09.573Z,101749.41
2023-05-05T17:00:11.591Z,101755.09
2023-05-05T17:05:13.237Z,101756.09
2023-05-05T17:10:14.847Z,101763.28
2023-05-05T17:15:16.311Z,101760.28
2023-05-05T17:20:17.746Z,101756.16
2023-05-05T17:25:19.230Z,101743.50
2023-05-05T17:30:20.949Z,101741.69
2023-05-05T17:35:22.410Z,101755.16
2023-05-05T17:40:24.798Z,101758.00
2023-05-05T17:45:26.312Z,101761.03
2023-05-05T17:50:27.856Z,101756.06
2023-05-05T17:55:29.316Z,101756.50
2023-05-05T18:00:30.739Z,101762.47
2023-05-05T18:05:32.171Z,101773.13
2023-05-05T18:10:33.635Z,101773.38
2023-05-05T18:15:35.159Z,101786.53
2023-05-05T18:20:36.620Z,101793.66
2023-05-05T18:25:38.104Z,101794.59
2023-05-05T18:30:39.584Z,101801.66
2023-05-05T18:35:41.017Z,101820.06
2023-05-05T18:40:42.434Z,101812.75
2023-05-05T18:45:43.937Z,101827.50
2023-05-05T18:50:45.371Z,101827.56
2023-05-05T18:55:46.762Z,101835.31
2023-05-05T19:00:48.242Z,101830.50
2023-05-05T19:05:49.663Z,101839.97
2023-05-05T19:10:51.114Z,101843.38
2023-05-05T19:15:54.397Z,101845.44
2023-05-05T19:20:55.937Z,101839.88
2023-05-05T19:25:57.650Z,101853.94
2023-05-05T19:30:59.425Z,101848.56
2023-05-05T19:36:01.722Z,101854.09
2023-05-05T19:41:03.194Z,101847.59
2023-05-05T19:46:04.901Z,101839.81
2023-05-05T19:51:06.448Z,101821.38
2023-05-05T19:56:08.036Z,101813.25
2023-05-05T20:01:09.542Z,101806.84
2023-05-05T20:06:11.132Z,101785.53
2023-05-05T20:11:16.268Z,101779.34
2023-05-05T20:16:18.471Z,101774.81
2023-05-05T20:21:19.999Z,101764.78
2023-05-05T20:26:21.480Z,101757.50
2023-05-05T20:31:22.998Z,101749.34
2023-05-05T20:36:24.562Z,101740.25
2023-05-05T20:41:26.006Z,101763.66
2023-05-05T20:46:27.564Z,101769.78
2023-05-05T20:51:29.020Z,101767.41
2023-05-05T20:56:30.457Z,101769.19
2023-05-05T21:01:31.873Z,101763.31
2023-05-05T21:06:33.369Z,101771.75
2023-05-05T21:11:34.792Z,101774.41
2023-05-05T21:16:36.205Z,101779.59
2023-05-05T21:21:37.664Z,101769.19
2023-05-05T21:26:43.503Z,101789.81
2023-05-05T21:31:44.896Z,101793.84
2023-05-05T21:36:46.387Z,101791.13
2023-05-05T21:41:47.828Z,101792.03
2023-05-05T21:46:49.292Z,101792.91
2023-05-05T21:51:50.769Z,101792.13
2023-05-05T21:56:52.687Z,101784.22
2023-05-05T22:01:54.285Z,101789.66
2023-05-05T22:06:55.894Z,101789.66
2023-05-05T22:11:57.492Z,101793.06
2023-05-05T22:16:59.074Z,101792.41
2023-05-05T22:22:00.526Z,101790.78
2023-05-05T22:27:01.984Z,101796.78
2023-05-05T22:32:03.447Z,101798.63
2023-05-05T22:37:04.923Z,101800.41
2023-05-05T22:42:06.621Z,101803.78
2023-05-05T22:47:08.103Z,101802.13
2023-05-05T22:52:09.727Z,101808.03
2023-05-05T22:57:11.144Z,101809.97
2023-05-05T23:02:12.891Z,101803.06
2023-05-05T23:07:14.359Z,101805.88
2023-05-05T23:12:16.875Z,101812.00
2023-05-05T23:17:18.376Z,101806.25
2023-05-05T23:22:19.870Z,101812.31
2023-05-05T23:27:21.314Z,101810.00
2023-05-05T23:32:22.770Z,101811.97
2023-05-05T23:37:24.211Z,101810.25
2023-05-05T23:42:25.658Z,101807.84
2023-05-05T23:47:27.137Z,101803.63
2023-05-05T23:52:28.779Z,101809.84
2023-05-05T23:57:30.235Z,101810.63
